Terminal Aerodrome Forecast
Issued by NWS North Platte, NE

Home | Current Version | Previous Version | Text Only | Print | Product List | Glossary Off
Versions: 1 2 3 4 5 6 7 8 9 10 11 12 13 14 15 16 17 18 19 20

938
FTUS43 KLBF 221120
TAFVTN
TAF
KVTN 221120Z 2212/2312 16015KT P6SM BKN110
     FM221700 18020G32KT P6SM SCT120
     FM230100 18015KT P6SM BKN200=

USA.gov is the U.S. government's official web portal to all federal, state and local government web resources and services.